Time;durP1;ratioP1;P1;durP2;ratioP2;P2;SDS_P1;SDS_P2;PMS_P1;PMS_P2;Temp;Humidity;BMP_temperature;BMP_pressure;BME280_temperature;BME280_humidity;BME280_pressure;Samples;Min_cycle;Max_cycle;Signal;HPM_P1;HPM_P2
2022/01/15 00:00:16;;;;;;;;;;;-0.60;99.90;;;;;;5084983;28;19920;-75
2022/01/15 00:02:43;;;;;;;;;;;-0.50;99.90;;;;;;5073010;28;19920;-75
2022/01/15 00:05:09;;;;;;;;;;;-0.50;99.90;;;;;;5075588;28;19920;-75
2022/01/15 00:07:36;;;;;;;;;;;-0.50;99.90;;;;;;5084616;28;19995;-76
2022/01/15 00:10:04;;;;;;;;;;;-0.60;99.90;;;;;;5088771;28;19926;-76
2022/01/15 00:12:38;;;;;;;;;;;-0.50;99.90;;;;;;5088523;28;19919;-76
2022/01/15 00:15:05;;;;;;;;;;;-0.50;99.90;;;;;;5077087;28;20333;-75
2022/01/15 00:17:45;;;;;;;;;;;-0.50;99.90;;;;;;5080200;28;19920;-76
2022/01/15 00:20:16;;;;;;;;;;;-0.50;99.90;;;;;;5080481;28;20014;-76
2022/01/15 00:22:43;;;;;;;;;;;-0.50;99.90;;;;;;5085945;28;20302;-75
2022/01/15 00:25:10;;;;;;;;;;;-0.50;99.90;;;;;;5089300;28;19920;-76
2022/01/15 00:27:37;;;;;;;;;;;-0.50;99.90;;;;;;5081917;28;19921;-75
2022/01/15 00:30:04;;;;;;;;;;;-0.50;99.90;;;;;;5081992;28;19964;-75
2022/01/15 00:32:31;;;;;;;;;;;-0.40;99.90;;;;;;5086092;28;20334;-75
2022/01/15 00:35:00;;;;;;;;;;;-0.50;99.90;;;;;;5079652;28;19963;-75
2022/01/15 00:37:33;;;;;;;;;;;-0.50;99.90;;;;;;5083032;28;19920;-75
2022/01/15 00:40:01;;;;;;;;;;;-0.50;99.90;;;;;;5082186;28;19999;-76
2022/01/15 00:42:28;;;;;;;;;;;-0.50;99.90;;;;;;5079012;28;19963;-75
2022/01/15 00:44:57;;;;;;;;;;;-0.50;99.90;;;;;;5080271;28;19924;-75
2022/01/15 00:47:25;;;;;;;;;;;-0.50;99.90;;;;;;5076910;28;19927;-75
2022/01/15 00:49:52;;;;;;;;;;;-0.50;99.90;;;;;;5080521;28;19960;-75
2022/01/15 00:52:19;;;;;;;;;;;-0.50;99.90;;;;;;5079634;28;19920;-76
2022/01/15 00:54:45;;;;;;;;;;;-0.50;99.90;;;;;;5077383;28;20398;-75
2022/01/15 00:57:12;;;;;;;;;;;-0.50;99.90;;;;;;5059548;28;19955;-75
2022/01/15 00:59:39;;;;;;;;;;;-0.50;99.90;;;;;;5083867;28;20007;-76
2022/01/15 01:02:05;;;;;;;;;;;-0.40;99.90;;;;;;5090585;28;19924;-76
2022/01/15 01:04:32;;;;;;;;;;;-0.40;99.90;;;;;;5076559;28;19920;-76
2022/01/15 01:07:00;;;;;;;;;;;-0.40;99.90;;;;;;5085962;28;19928;-76
2022/01/15 01:09:37;;;;;;;;;;;-0.40;99.90;;;;;;5074311;28;20006;-75
2022/01/15 01:12:21;;;;;;;;;;;-0.40;99.90;;;;;;5088801;28;19951;-75
2022/01/15 01:20:27;;;;;;;;;;;-0.30;99.90;;;;;;5056022;28;20097;-75
2022/01/15 01:22:57;;;;;;;;;;;-0.30;99.90;;;;;;5081027;28;24116;-75
2022/01/15 01:25:29;;;;;;;;;;;-0.30;99.90;;;;;;5083686;28;20007;-75
2022/01/15 01:28:03;;;;;;;;;;;-0.30;99.90;;;;;;5095706;28;20397;-75
2022/01/15 01:30:36;;;;;;;;;;;-0.30;99.90;;;;;;5068554;28;19936;-76
2022/01/15 01:36:07;;;;;;;;;;;-0.30;99.90;;;;;;5087317;28;19930;-75
2022/01/15 01:38:41;;;;;;;;;;;-0.30;99.90;;;;;;5075202;28;19939;-75
2022/01/15 01:41:14;;;;;;;;;;;-0.30;99.90;;;;;;5094238;28;19931;-75
2022/01/15 01:43:49;;;;;;;;;;;-0.30;99.90;;;;;;5086601;28;20451;-75
2022/01/15 01:48:46;;;;;;;;;;;-0.30;99.90;;;;;;5078737;28;20256;-75
2022/01/15 01:51:20;;;;;;;;;;;-0.30;99.90;;;;;;5077159;28;19924;-75
2022/01/15 01:53:47;;;;;;;;;;;-0.30;99.90;;;;;;5085262;28;19959;-75
2022/01/15 01:56:15;;;;;;;;;;;-0.30;99.90;;;;;;5086390;28;20417;-75
2022/01/15 01:58:41;;;;;;;;;;;-0.30;99.90;;;;;;5089028;28;20019;-75
2022/01/15 02:01:08;;;;;;;;;;;-0.30;99.90;;;;;;5079697;28;19980;-75
2022/01/15 02:03:35;;;;;;;;;;;-0.30;99.90;;;;;;5061618;28;19932;-75
2022/01/15 02:06:02;;;;;;;;;;;-0.30;99.90;;;;;;5082812;28;19924;-75
2022/01/15 02:08:32;;;;;;;;;;;-0.30;99.90;;;;;;5088695;28;20364;-74
2022/01/15 02:11:00;;;;;;;;;;;-0.30;99.90;;;;;;5088233;28;19924;-75
2022/01/15 02:13:27;;;;;;;;;;;-0.40;99.90;;;;;;5082750;28;19959;-75
2022/01/15 02:15:55;;;;;;;;;;;-0.40;99.90;;;;;;5082342;28;19925;-75
2022/01/15 02:18:22;;;;;;;;;;;-0.40;99.90;;;;;;5077308;28;19978;-75
2022/01/15 02:23:35;;;;;;;;;;;-0.40;99.90;;;;;;5080734;28;19924;-74
2022/01/15 02:26:04;;;;;;;;;;;-0.50;99.90;;;;;;5078851;28;19970;-74
2022/01/15 02:28:41;;;;;;;;;;;-0.50;99.90;;;;;;5080708;28;19931;-74
2022/01/15 02:31:12;;;;;;;;;;;-0.50;99.90;;;;;;5081320;28;19932;-74
2022/01/15 02:33:40;;;;;;;;;;;-0.50;99.90;;;;;;5076254;28;19966;-74
2022/01/15 02:36:09;;;;;;;;;;;-0.50;99.90;;;;;;5085199;28;20545;-74
2022/01/15 02:38:36;;;;;;;;;;;-0.50;99.90;;;;;;5086286;28;19928;-74
2022/01/15 02:41:05;;;;;;;;;;;-0.50;99.90;;;;;;5051474;28;20027;-74
2022/01/15 02:43:33;;;;;;;;;;;-0.50;99.90;;;;;;5089547;28;20291;-74
2022/01/15 02:46:18;;;;;;;;;;;-0.50;99.90;;;;;;5084651;28;19931;-75
2022/01/15 02:48:46;;;;;;;;;;;-0.50;99.90;;;;;;5082877;28;20600;-74
2022/01/15 02:51:13;;;;;;;;;;;-0.60;99.90;;;;;;5092112;28;20018;-74
2022/01/15 02:53:41;;;;;;;;;;;-0.50;99.90;;;;;;5075635;28;20003;-75
2022/01/15 02:56:09;;;;;;;;;;;-0.60;99.90;;;;;;5084870;28;19924;-75
2022/01/15 02:58:36;;;;;;;;;;;-0.60;99.90;;;;;;5084305;28;19935;-75
2022/01/15 03:01:03;;;;;;;;;;;-0.60;99.90;;;;;;5080305;28;19932;-75
2022/01/15 03:03:29;;;;;;;;;;;-0.60;99.90;;;;;;5075362;28;19932;-75
2022/01/15 03:05:58;;;;;;;;;;;-0.60;99.90;;;;;;5088517;28;20514;-75
2022/01/15 03:08:25;;;;;;;;;;;-0.60;99.90;;;;;;5084761;28;19971;-76
2022/01/15 03:10:51;;;;;;;;;;;-0.60;99.90;;;;;;5096723;28;20417;-75
2022/01/15 03:13:18;;;;;;;;;;;-0.60;99.90;;;;;;5073818;28;19925;-75
2022/01/15 03:15:45;;;;;;;;;;;-0.50;99.90;;;;;;5075120;28;19928;-76
2022/01/15 03:18:12;;;;;;;;;;;-0.50;99.90;;;;;;5086547;28;19924;-76
2022/01/15 03:20:38;;;;;;;;;;;-0.50;99.90;;;;;;5089740;28;20024;-75
2022/01/15 03:23:05;;;;;;;;;;;-0.50;99.90;;;;;;5082062;28;20014;-76
2022/01/15 03:25:32;;;;;;;;;;;-0.50;99.90;;;;;;5079510;28;19924;-76
2022/01/15 03:27:58;;;;;;;;;;;-0.50;99.90;;;;;;5078927;28;19928;-76
2022/01/15 03:30:25;;;;;;;;;;;-0.40;99.90;;;;;;5074789;28;20609;-76
2022/01/15 03:32:52;;;;;;;;;;;-0.40;99.90;;;;;;5081014;28;19920;-77
2022/01/15 03:35:19;;;;;;;;;;;-0.40;99.90;;;;;;5076221;28;20276;-77
2022/01/15 03:37:46;;;;;;;;;;;-0.40;99.90;;;;;;5074791;28;20366;-76
2022/01/15 03:40:14;;;;;;;;;;;-0.40;99.90;;;;;;5074437;28;19920;-77
2022/01/15 03:42:42;;;;;;;;;;;-0.40;99.90;;;;;;5055834;28;19920;-77
2022/01/15 03:45:09;;;;;;;;;;;-0.30;99.90;;;;;;5096996;28;19920;-77
2022/01/15 03:47:35;;;;;;;;;;;-0.30;99.90;;;;;;5083968;28;19931;-77
2022/01/15 03:50:03;;;;;;;;;;;-0.30;99.90;;;;;;5079314;28;19925;-76
2022/01/15 03:52:29;;;;;;;;;;;-0.30;99.90;;;;;;5087843;28;19926;-77
2022/01/15 03:54:56;;;;;;;;;;;-0.30;99.90;;;;;;5077247;28;19920;-76
2022/01/15 03:57:23;;;;;;;;;;;-0.30;99.90;;;;;;5079112;28;19921;-76
2022/01/15 03:59:50;;;;;;;;;;;-0.30;99.90;;;;;;5075640;28;19947;-76
2022/01/15 04:02:16;;;;;;;;;;;-0.30;99.90;;;;;;5089921;28;19920;-77
2022/01/15 04:04:43;;;;;;;;;;;-0.30;99.90;;;;;;5083681;28;20687;-77
2022/01/15 04:07:10;;;;;;;;;;;-0.30;99.90;;;;;;5074765;28;19934;-77
2022/01/15 04:09:36;;;;;;;;;;;-0.30;99.90;;;;;;5083819;28;19920;-76
2022/01/15 04:12:03;;;;;;;;;;;-0.30;99.90;;;;;;5075713;28;19920;-77
2022/01/15 04:14:30;;;;;;;;;;;-0.30;99.90;;;;;;5086320;28;20003;-77
2022/01/15 04:16:57;;;;;;;;;;;-0.30;99.90;;;;;;5085244;28;19920;-76
2022/01/15 04:19:24;;;;;;;;;;;-0.30;99.90;;;;;;5074988;28;19920;-77
2022/01/15 04:21:51;;;;;;;;;;;-0.30;99.90;;;;;;5076863;28;19974;-76
2022/01/15 04:24:20;;;;;;;;;;;-0.30;99.90;;;;;;5088641;28;19926;-76
2022/01/15 04:26:49;;;;;;;;;;;-0.30;99.90;;;;;;5084294;28;19980;-76
2022/01/15 04:29:16;;;;;;;;;;;-0.30;99.90;;;;;;5086010;28;19931;-76
2022/01/15 04:31:50;;;;;;;;;;;-0.30;99.90;;;;;;5085180;28;19966;-77
2022/01/15 04:34:21;;;;;;;;;;;-0.30;99.90;;;;;;5084460;28;19920;-75
2022/01/15 04:36:49;;;;;;;;;;;-0.20;99.90;;;;;;5077702;28;19934;-75
2022/01/15 04:39:16;;;;;;;;;;;-0.20;99.90;;;;;;5074449;28;19924;-76
2022/01/15 04:41:43;;;;;;;;;;;-0.20;99.90;;;;;;5088321;28;19999;-74
2022/01/15 04:44:09;;;;;;;;;;;-0.20;99.90;;;;;;5063158;28;19969;-75
2022/01/15 04:46:37;;;;;;;;;;;-0.20;99.90;;;;;;5087877;28;20373;-75
2022/01/15 04:49:04;;;;;;;;;;;-0.20;99.90;;;;;;5076210;28;19990;-75
2022/01/15 04:51:32;;;;;;;;;;;-0.20;99.90;;;;;;5085986;28;20010;-75
2022/01/15 04:53:58;;;;;;;;;;;-0.20;99.90;;;;;;5082419;28;20006;-75
2022/01/15 04:56:25;;;;;;;;;;;-0.20;99.90;;;;;;5078231;28;20007;-75
2022/01/15 04:58:52;;;;;;;;;;;-0.20;99.90;;;;;;5085942;28;19924;-74
2022/01/15 05:01:19;;;;;;;;;;;-0.20;99.90;;;;;;5076356;28;19920;-75
2022/01/15 05:03:46;;;;;;;;;;;-0.10;99.90;;;;;;5081565;28;20398;-75
2022/01/15 05:06:13;;;;;;;;;;;-0.20;99.90;;;;;;5085995;28;19927;-75
2022/01/15 05:08:41;;;;;;;;;;;-0.10;99.90;;;;;;5081286;28;19919;-75
2022/01/15 05:11:26;;;;;;;;;;;-0.10;99.90;;;;;;5087542;28;19965;-75
2022/01/15 05:13:53;;;;;;;;;;;-0.10;99.90;;;;;;5080401;28;19920;-75
2022/01/15 05:16:19;;;;;;;;;;;-0.10;99.90;;;;;;5082983;28;19924;-75
2022/01/15 05:18:46;;;;;;;;;;;-0.10;99.90;;;;;;5082703;28;20005;-76
2022/01/15 05:21:13;;;;;;;;;;;-0.10;99.90;;;;;;5072863;28;19928;-75
2022/01/15 05:23:40;;;;;;;;;;;-0.10;99.90;;;;;;5076165;28;20365;-75
2022/01/15 05:26:07;;;;;;;;;;;-0.10;99.90;;;;;;5074783;28;19966;-75
2022/01/15 05:28:33;;;;;;;;;;;-0.10;99.90;;;;;;5076205;28;20003;-76
2022/01/15 05:31:00;;;;;;;;;;;0.00;99.90;;;;;;5078970;28;19950;-76
2022/01/15 05:33:27;;;;;;;;;;;0.00;99.90;;;;;;5073790;28;19927;-75
2022/01/15 05:35:53;;;;;;;;;;;0.00;99.90;;;;;;5082874;28;19920;-76
2022/01/15 05:38:20;;;;;;;;;;;0.00;99.90;;;;;;5079915;28;19924;-75
2022/01/15 05:40:49;;;;;;;;;;;0.00;99.90;;;;;;5080423;28;20625;-75
2022/01/15 05:43:15;;;;;;;;;;;0.00;99.90;;;;;;5078003;28;20382;-75
2022/01/15 05:45:42;;;;;;;;;;;0.00;99.90;;;;;;5055790;28;19920;-75
2022/01/15 05:48:09;;;;;;;;;;;0.00;99.90;;;;;;5078915;28;19921;-75
2022/01/15 05:50:36;;;;;;;;;;;0.00;99.90;;;;;;5083687;28;19938;-75
2022/01/15 05:53:02;;;;;;;;;;;0.00;99.90;;;;;;5081649;28;19931;-75
2022/01/15 05:55:29;;;;;;;;;;;0.00;99.90;;;;;;5080251;28;20021;-75
2022/01/15 05:57:55;;;;;;;;;;;0.00;99.90;;;;;;5083021;28;19977;-75
2022/01/15 06:00:22;;;;;;;;;;;0.00;99.90;;;;;;5083365;28;19964;-76
2022/01/15 06:02:49;;;;;;;;;;;0.10;99.90;;;;;;5076907;28;19920;-75
2022/01/15 06:05:16;;;;;;;;;;;0.10;99.90;;;;;;5090699;28;20298;-75
2022/01/15 06:07:45;;;;;;;;;;;0.10;99.90;;;;;;5079926;28;20362;-76
2022/01/15 06:10:11;;;;;;;;;;;0.10;99.90;;;;;;5080030;28;20430;-76
2022/01/15 06:12:43;;;;;;;;;;;0.10;99.90;;;;;;5085445;28;20320;-76
2022/01/15 06:15:14;;;;;;;;;;;0.10;99.90;;;;;;5086867;28;19974;-75
2022/01/15 06:17:42;;;;;;;;;;;0.10;99.90;;;;;;5078755;28;19921;-75
2022/01/15 06:20:11;;;;;;;;;;;0.10;99.90;;;;;;5078803;28;20264;-75
2022/01/15 06:22:38;;;;;;;;;;;0.20;99.90;;;;;;5078020;28;20290;-75
2022/01/15 06:25:05;;;;;;;;;;;0.20;99.90;;;;;;5082672;28;19927;-75
2022/01/15 06:27:32;;;;;;;;;;;0.10;99.90;;;;;;5091005;28;20521;-75
2022/01/15 06:29:59;;;;;;;;;;;0.10;99.90;;;;;;5087943;28;25110;-76
2022/01/15 06:32:27;;;;;;;;;;;0.20;99.90;;;;;;5051847;28;20413;-75
2022/01/15 06:34:54;;;;;;;;;;;0.20;99.90;;;;;;5081782;28;19927;-75
2022/01/15 06:37:21;;;;;;;;;;;0.20;99.90;;;;;;5081581;28;19920;-75
2022/01/15 06:39:48;;;;;;;;;;;0.20;99.90;;;;;;5085990;28;20267;-75
2022/01/15 06:42:15;;;;;;;;;;;0.20;99.90;;;;;;5081043;28;19921;-75
2022/01/15 06:44:41;;;;;;;;;;;0.20;99.90;;;;;;5081232;28;20007;-75
2022/01/15 06:47:08;;;;;;;;;;;0.20;99.90;;;;;;5088249;28;19930;-75
2022/01/15 06:49:36;;;;;;;;;;;0.30;99.90;;;;;;5077751;28;20314;-75
2022/01/15 06:52:04;;;;;;;;;;;0.20;99.90;;;;;;5096975;28;20354;-75
2022/01/15 06:54:30;;;;;;;;;;;0.30;99.90;;;;;;5077730;28;19920;-75
2022/01/15 06:56:57;;;;;;;;;;;0.20;99.90;;;;;;5083217;28;19933;-75
2022/01/15 06:59:24;;;;;;;;;;;0.30;99.90;;;;;;5077991;28;19920;-75
2022/01/15 07:01:50;;;;;;;;;;;0.30;99.90;;;;;;5076882;28;20019;-75
2022/01/15 07:04:17;;;;;;;;;;;0.30;99.90;;;;;;5081597;28;20458;-75
2022/01/15 07:06:44;;;;;;;;;;;0.30;99.90;;;;;;5076217;28;19930;-75
2022/01/15 07:09:11;;;;;;;;;;;0.30;99.90;;;;;;5057386;28;20450;-78
2022/01/15 07:11:37;;;;;;;;;;;0.30;99.90;;;;;;5094400;28;19920;-77
2022/01/15 07:14:04;;;;;;;;;;;0.30;99.90;;;;;;5078621;28;19935;-77
2022/01/15 07:16:31;;;;;;;;;;;0.40;99.90;;;;;;5075794;28;20513;-78
2022/01/15 07:18:57;;;;;;;;;;;0.40;99.90;;;;;;5068588;28;20712;-78
2022/01/15 07:21:24;;;;;;;;;;;0.40;99.90;;;;;;5075788;28;19924;-78
2022/01/15 07:23:51;;;;;;;;;;;0.40;99.90;;;;;;5080865;28;19924;-78
2022/01/15 07:26:17;;;;;;;;;;;0.40;99.90;;;;;;5083848;28;19924;-78
2022/01/15 07:28:44;;;;;;;;;;;0.40;99.90;;;;;;5070911;28;19920;-77
2022/01/15 07:31:11;;;;;;;;;;;0.40;99.90;;;;;;5083260;28;19920;-78
2022/01/15 07:33:38;;;;;;;;;;;0.40;99.90;;;;;;5073258;28;19924;-78
2022/01/15 07:36:05;;;;;;;;;;;0.50;99.90;;;;;;5081256;28;19924;-77
2022/01/15 07:38:31;;;;;;;;;;;0.50;99.90;;;;;;5074439;28;19924;-78
2022/01/15 07:40:59;;;;;;;;;;;0.40;99.90;;;;;;5074367;28;20581;-77
2022/01/15 07:43:27;;;;;;;;;;;0.40;99.90;;;;;;5072984;28;19982;-77
2022/01/15 07:45:54;;;;;;;;;;;0.50;99.90;;;;;;5075986;28;19946;-77
2022/01/15 07:48:21;;;;;;;;;;;0.50;99.90;;;;;;5079773;28;19920;-77
2022/01/15 07:50:52;;;;;;;;;;;0.50;99.90;;;;;;5073989;28;19928;-76
2022/01/15 07:53:18;;;;;;;;;;;0.50;99.90;;;;;;5085919;28;19930;-76
2022/01/15 07:55:45;;;;;;;;;;;0.50;99.90;;;;;;5082935;28;19924;-76
2022/01/15 07:58:12;;;;;;;;;;;0.50;99.90;;;;;;5074146;28;19924;-76
2022/01/15 08:00:39;;;;;;;;;;;0.50;99.90;;;;;;5075632;28;19949;-76
2022/01/15 08:03:06;;;;;;;;;;;0.50;99.90;;;;;;5076773;28;20027;-76
2022/01/15 08:05:33;;;;;;;;;;;0.50;99.90;;;;;;5080366;28;20381;-76
2022/01/15 08:08:00;;;;;;;;;;;0.50;99.90;;;;;;5084185;28;20011;-76
2022/01/15 08:10:27;;;;;;;;;;;0.50;99.90;;;;;;5084872;28;19946;-76
2022/01/15 08:12:53;;;;;;;;;;;0.50;99.90;;;;;;5085406;28;19928;-76
2022/01/15 08:15:20;;;;;;;;;;;0.60;99.90;;;;;;5080381;28;19920;-75
2022/01/15 08:17:47;;;;;;;;;;;0.60;99.90;;;;;;5079541;28;19924;-75
2022/01/15 08:20:15;;;;;;;;;;;0.60;99.90;;;;;;5057596;28;19969;-76
2022/01/15 08:22:51;;;;;;;;;;;0.70;99.90;;;;;;5087979;28;19919;-76
2022/01/15 08:25:18;;;;;;;;;;;0.70;99.90;;;;;;5083910;28;19920;-76
2022/01/15 08:27:46;;;;;;;;;;;0.70;99.90;;;;;;5076933;28;19968;-76
2022/01/15 08:30:13;;;;;;;;;;;0.70;99.90;;;;;;5079220;28;20610;-75
2022/01/15 08:32:40;;;;;;;;;;;0.80;99.90;;;;;;5077478;28;20372;-76
2022/01/15 08:35:07;;;;;;;;;;;0.80;99.90;;;;;;5081903;28;19925;-76
2022/01/15 08:37:34;;;;;;;;;;;0.90;99.90;;;;;;5073774;28;19925;-76
2022/01/15 08:40:01;;;;;;;;;;;0.90;99.90;;;;;;5079051;28;19927;-76
2022/01/15 08:42:27;;;;;;;;;;;0.90;99.90;;;;;;5075854;28;19927;-76
2022/01/15 08:44:54;;;;;;;;;;;0.90;99.90;;;;;;5082328;28;19977;-76
2022/01/15 08:47:21;;;;;;;;;;;1.00;99.90;;;;;;5079387;28;19928;-76
2022/01/15 08:49:48;;;;;;;;;;;1.00;99.90;;;;;;5084550;28;19927;-76
2022/01/15 08:52:14;;;;;;;;;;;1.00;99.90;;;;;;5084304;28;19920;-76
2022/01/15 08:54:41;;;;;;;;;;;1.00;99.90;;;;;;5086483;28;19920;-76
2022/01/15 08:57:08;;;;;;;;;;;1.10;99.90;;;;;;5078480;28;20371;-76
2022/01/15 08:59:35;;;;;;;;;;;1.10;99.90;;;;;;5082942;28;19927;-76
2022/01/15 09:02:01;;;;;;;;;;;1.10;99.90;;;;;;5081529;28;20015;-76
2022/01/15 09:04:28;;;;;;;;;;;1.20;99.90;;;;;;5079496;28;19960;-76
2022/01/15 09:06:55;;;;;;;;;;;1.20;99.90;;;;;;5077876;28;19920;-75
2022/01/15 09:09:22;;;;;;;;;;;1.20;99.90;;;;;;5075115;28;20010;-76
2022/01/15 09:11:49;;;;;;;;;;;1.30;99.90;;;;;;5083931;28;20007;-76
2022/01/15 09:14:16;;;;;;;;;;;1.40;99.90;;;;;;5077723;28;19943;-75
2022/01/15 09:16:43;;;;;;;;;;;1.40;99.90;;;;;;5079235;28;19920;-76
2022/01/15 09:19:11;;;;;;;;;;;1.40;99.90;;;;;;5081655;28;20383;-77
2022/01/15 09:21:38;;;;;;;;;;;1.40;99.90;;;;;;5087094;28;19954;-76
2022/01/15 09:24:04;;;;;;;;;;;1.40;99.90;;;;;;5074793;28;19939;-76
2022/01/15 09:32:03;;;;;;;;;;;1.50;99.90;;;;;;5082909;28;20006;-76
2022/01/15 09:34:32;;;;;;;;;;;1.60;99.90;;;;;;5088598;28;19970;-76
2022/01/15 09:36:58;;;;;;;;;;;1.60;99.90;;;;;;5084904;28;19924;-76
2022/01/15 09:39:25;;;;;;;;;;;1.60;99.90;;;;;;5094311;28;19920;-76
2022/01/15 09:41:54;;;;;;;;;;;1.60;99.90;;;;;;5078124;28;20459;-75
2022/01/15 09:44:25;;;;;;;;;;;1.60;99.90;;;;;;5087784;28;19920;-76
2022/01/15 09:46:52;;;;;;;;;;;1.60;99.90;;;;;;5086857;28;19920;-75
2022/01/15 09:49:20;;;;;;;;;;;1.60;99.90;;;;;;5083295;28;19920;-75
2022/01/15 09:51:47;;;;;;;;;;;1.60;99.90;;;;;;5078884;28;20078;-75
2022/01/15 09:54:14;;;;;;;;;;;1.60;99.90;;;;;;5078641;28;19960;-75
2022/01/15 09:56:41;;;;;;;;;;;1.70;99.90;;;;;;5084972;28;20457;-75
2022/01/15 09:59:09;;;;;;;;;;;1.60;99.90;;;;;;5082428;28;20445;-75
2022/01/15 10:01:36;;;;;;;;;;;1.70;99.90;;;;;;5080042;28;19940;-76
2022/01/15 10:04:03;;;;;;;;;;;1.70;99.90;;;;;;5085378;28;20022;-75
2022/01/15 10:06:29;;;;;;;;;;;1.70;99.90;;;;;;5074921;28;20832;-76
2022/01/15 10:09:06;;;;;;;;;;;1.80;99.90;;;;;;5077164;28;19921;-75
2022/01/15 10:11:43;;;;;;;;;;;1.80;99.90;;;;;;5076982;28;19924;-76
2022/01/15 10:14:24;;;;;;;;;;;1.80;99.90;;;;;;5076735;28;20285;-75
2022/01/15 10:16:51;;;;;;;;;;;1.90;99.90;;;;;;5083526;28;19958;-76
2022/01/15 10:19:24;;;;;;;;;;;1.90;99.90;;;;;;5079647;28;19963;-76
2022/01/15 10:22:11;;;;;;;;;;;1.90;99.90;;;;;;5085556;28;19927;-75
2022/01/15 10:24:39;;;;;;;;;;;1.80;99.90;;;;;;5086365;28;19924;-75
2022/01/15 10:27:24;;;;;;;;;;;1.80;99.90;;;;;;5077525;28;19931;-76
2022/01/15 10:29:52;;;;;;;;;;;1.70;99.90;;;;;;5078588;28;19920;-76
2022/01/15 10:32:18;;;;;;;;;;;1.80;99.90;;;;;;5072628;28;19935;-76
2022/01/15 10:34:45;;;;;;;;;;;1.80;99.90;;;;;;5083170;28;19996;-75
2022/01/15 10:37:14;;;;;;;;;;;1.90;99.90;;;;;;5089010;28;19991;-75
2022/01/15 10:39:52;;;;;;;;;;;1.90;99.90;;;;;;5086584;28;19927;-75
2022/01/15 10:42:23;;;;;;;;;;;1.90;99.90;;;;;;5072684;28;19928;-75
2022/01/15 10:44:51;;;;;;;;;;;1.90;99.90;;;;;;5076610;28;20499;-75
2022/01/15 10:47:18;;;;;;;;;;;1.90;99.90;;;;;;5082811;28;20451;-75
2022/01/15 10:49:45;;;;;;;;;;;1.90;99.90;;;;;;5077155;28;19927;-75
2022/01/15 10:52:13;;;;;;;;;;;2.00;99.90;;;;;;5071468;28;20576;-75
2022/01/15 10:54:50;;;;;;;;;;;2.10;99.90;;;;;;5092278;28;19931;-75
2022/01/15 10:57:18;;;;;;;;;;;2.20;99.90;;;;;;5076878;28;19920;-75
2022/01/15 11:00:15;;;;;;;;;;;2.20;99.90;;;;;;5071476;28;19982;-74
2022/01/15 11:02:43;;;;;;;;;;;2.20;99.90;;;;;;5084277;28;20298;-75
2022/01/15 11:05:25;;;;;;;;;;;2.20;99.90;;;;;;5078011;28;19931;-75
2022/01/15 11:07:53;;;;;;;;;;;2.20;99.90;;;;;;5075913;28;20804;-75
2022/01/15 11:10:20;;;;;;;;;;;2.20;99.90;;;;;;5072073;28;19924;-75
2022/01/15 11:12:47;;;;;;;;;;;2.30;99.90;;;;;;5076516;28;19924;-75
2022/01/15 11:15:14;;;;;;;;;;;2.20;99.90;;;;;;5078659;28;19931;-75
2022/01/15 11:17:42;;;;;;;;;;;2.20;99.90;;;;;;5075623;28;19935;-75
2022/01/15 11:20:10;;;;;;;;;;;2.20;99.90;;;;;;5076275;28;19928;-75
2022/01/15 11:22:40;;;;;;;;;;;2.20;99.90;;;;;;5076803;28;19924;-75
2022/01/15 11:25:07;;;;;;;;;;;2.20;99.90;;;;;;5097534;28;19924;-75
2022/01/15 11:27:34;;;;;;;;;;;2.20;99.90;;;;;;5085278;28;19955;-75
2022/01/15 11:30:01;;;;;;;;;;;2.20;99.90;;;;;;5080770;28;20018;-74
2022/01/15 11:32:28;;;;;;;;;;;2.30;99.90;;;;;;5073522;28;19924;-75
2022/01/15 11:34:58;;;;;;;;;;;2.20;99.90;;;;;;5083295;28;19924;-75
2022/01/15 11:37:25;;;;;;;;;;;2.20;99.90;;;;;;5071216;28;19999;-75
2022/01/15 11:39:55;;;;;;;;;;;2.20;99.90;;;;;;5071171;28;19924;-75
2022/01/15 11:42:26;;;;;;;;;;;2.20;99.90;;;;;;5082429;28;20355;-75
2022/01/15 11:44:53;;;;;;;;;;;2.20;99.90;;;;;;5074147;28;19958;-75
2022/01/15 11:47:23;;;;;;;;;;;2.30;99.90;;;;;;5065662;28;20034;-75
2022/01/15 11:49:53;;;;;;;;;;;2.30;99.90;;;;;;5081423;28;19920;-74
2022/01/15 11:52:30;;;;;;;;;;;2.40;99.90;;;;;;5077255;28;19920;-75
2022/01/15 11:54:56;;;;;;;;;;;2.30;99.90;;;;;;5072518;28;19921;-74
2022/01/15 11:57:33;;;;;;;;;;;2.30;99.90;;;;;;5078029;28;19975;-75
2022/01/15 12:00:01;;;;;;;;;;;2.30;99.90;;;;;;5073555;28;19920;-76
2022/01/15 12:02:34;;;;;;;;;;;2.20;99.90;;;;;;5090181;28;19938;-74
2022/01/15 12:05:16;;;;;;;;;;;2.20;99.90;;;;;;5082186;28;20285;-74
2022/01/15 12:08:01;;;;;;;;;;;2.10;99.90;;;;;;5082441;28;20449;-74
2022/01/15 12:10:41;;;;;;;;;;;2.10;99.90;;;;;;5099112;28;19928;-74
2022/01/15 12:13:11;;;;;;;;;;;2.00;99.90;;;;;;5081507;28;19924;-74
2022/01/15 12:15:38;;;;;;;;;;;2.10;99.90;;;;;;5076262;28;20010;-74
2022/01/15 12:18:15;;;;;;;;;;;2.20;99.90;;;;;;5054995;28;19971;-74
2022/01/15 12:20:43;;;;;;;;;;;2.30;99.90;;;;;;5086028;28;20006;-73
2022/01/15 12:23:17;;;;;;;;;;;2.30;99.90;;;;;;5076127;28;19920;-73
2022/01/15 12:25:45;;;;;;;;;;;2.40;99.90;;;;;;5083258;28;19926;-73
2022/01/15 12:28:15;;;;;;;;;;;2.30;99.90;;;;;;5074793;28;19959;-76
2022/01/15 12:30:46;;;;;;;;;;;2.30;99.90;;;;;;5079140;28;19942;-75
2022/01/15 12:33:15;;;;;;;;;;;2.20;99.90;;;;;;5083458;28;19986;-75
2022/01/15 12:35:58;;;;;;;;;;;2.10;99.90;;;;;;5077106;28;19932;-75
2022/01/15 12:38:26;;;;;;;;;;;2.10;99.90;;;;;;5076394;28;20389;-75
2022/01/15 12:41:05;;;;;;;;;;;2.10;99.90;;;;;;5074928;28;19920;-75
2022/01/15 12:43:40;;;;;;;;;;;2.10;99.90;;;;;;5086366;28;25109;-75
2022/01/15 12:46:10;;;;;;;;;;;2.00;99.90;;;;;;5079316;28;19938;-75
2022/01/15 12:48:40;;;;;;;;;;;2.10;99.90;;;;;;5080615;28;19931;-73
2022/01/15 12:51:07;;;;;;;;;;;2.10;99.90;;;;;;5083126;28;19924;-73
2022/01/15 12:53:35;;;;;;;;;;;2.20;99.90;;;;;;5054022;28;20430;-74
2022/01/15 12:56:06;;;;;;;;;;;2.20;99.90;;;;;;5075930;28;19920;-74
2022/01/15 12:58:32;;;;;;;;;;;2.10;99.90;;;;;;5079478;28;19932;-74
2022/01/15 13:01:02;;;;;;;;;;;2.20;99.90;;;;;;5071795;28;20007;-76
2022/01/15 13:03:29;;;;;;;;;;;2.10;99.90;;;;;;5084240;28;19929;-74
2022/01/15 13:06:00;;;;;;;;;;;2.10;99.90;;;;;;5080770;28;19920;-74
2022/01/15 13:08:33;;;;;;;;;;;2.00;99.90;;;;;;5076096;28;19930;-74
2022/01/15 13:11:05;;;;;;;;;;;2.10;99.90;;;;;;5062301;28;19924;-74
2022/01/15 13:13:33;;;;;;;;;;;2.10;99.90;;;;;;5075814;28;19920;-74
2022/01/15 13:16:07;;;;;;;;;;;2.10;99.90;;;;;;5073399;28;19920;-74
2022/01/15 13:18:35;;;;;;;;;;;2.20;99.90;;;;;;5072582;28;19951;-74
2022/01/15 13:21:03;;;;;;;;;;;2.20;99.90;;;;;;5081545;28;19920;-74
2022/01/15 13:23:35;;;;;;;;;;;2.20;99.90;;;;;;5087672;28;19926;-74
2022/01/15 13:26:01;;;;;;;;;;;2.20;99.90;;;;;;5074047;28;19920;-74
2022/01/15 13:28:28;;;;;;;;;;;2.10;99.90;;;;;;5057348;28;19920;-74
2022/01/15 13:30:55;;;;;;;;;;;2.20;99.90;;;;;;5080876;28;19927;-74
2022/01/15 13:33:32;;;;;;;;;;;2.20;99.90;;;;;;5074183;28;19920;-74
2022/01/15 13:36:02;;;;;;;;;;;2.20;99.90;;;;;;5074637;28;19925;-74
2022/01/15 13:38:33;;;;;;;;;;;2.20;99.90;;;;;;5079576;28;20035;-74
2022/01/15 13:41:09;;;;;;;;;;;2.20;99.90;;;;;;5073376;28;19928;-74
2022/01/15 13:43:35;;;;;;;;;;;2.10;99.90;;;;;;5086180;28;19920;-74
2022/01/15 13:46:06;;;;;;;;;;;2.10;99.90;;;;;;5076137;28;20596;-74
2022/01/15 13:48:33;;;;;;;;;;;2.00;99.90;;;;;;5076062;28;24103;-74
2022/01/15 13:53:48;;;;;;;;;;;1.90;99.90;;;;;;5075390;28;19924;-74
2022/01/15 13:56:19;;;;;;;;;;;1.90;99.90;;;;;;5077297;28;20382;-74
2022/01/15 13:58:47;;;;;;;;;;;1.90;99.90;;;;;;5073586;28;19924;-74
2022/01/15 14:01:17;;;;;;;;;;;1.90;99.90;;;;;;5075653;28;19928;-74
2022/01/15 14:03:44;;;;;;;;;;;1.90;99.90;;;;;;5070723;28;19928;-74
2022/01/15 14:06:11;;;;;;;;;;;1.90;99.90;;;;;;5080417;28;19924;-74
2022/01/15 14:08:38;;;;;;;;;;;1.90;99.90;;;;;;5094720;28;20015;-75
2022/01/15 14:11:17;;;;;;;;;;;2.00;99.90;;;;;;5074457;28;20027;-75
2022/01/15 14:13:44;;;;;;;;;;;2.00;99.90;;;;;;5045523;28;19974;-74
2022/01/15 14:16:21;;;;;;;;;;;2.00;99.90;;;;;;5074361;28;20011;-74
2022/01/15 14:18:59;;;;;;;;;;;2.10;99.90;;;;;;5083583;28;20411;-75
2022/01/15 14:24:12;;;;;;;;;;;2.10;99.90;;;;;;5080370;28;20297;-75
2022/01/15 14:26:44;;;;;;;;;;;2.00;99.90;;;;;;5082234;28;19923;-75
2022/01/15 14:29:12;;;;;;;;;;;2.00;99.90;;;;;;5077692;28;20558;-74
2022/01/15 14:31:39;;;;;;;;;;;2.00;99.90;;;;;;5081520;28;20282;-74
2022/01/15 14:34:06;;;;;;;;;;;2.00;99.90;;;;;;5086803;28;20493;-75
2022/01/15 14:36:32;;;;;;;;;;;2.00;99.90;;;;;;5088880;28;19920;-74
2022/01/15 14:39:04;;;;;;;;;;;2.00;99.90;;;;;;5074021;28;19924;-74
2022/01/15 14:41:35;;;;;;;;;;;2.00;99.90;;;;;;5086994;28;19928;-73
2022/01/15 14:44:03;;;;;;;;;;;2.00;99.90;;;;;;5080195;28;19924;-74
2022/01/15 14:46:30;;;;;;;;;;;1.90;99.90;;;;;;5089091;28;19973;-74
2022/01/15 14:48:57;;;;;;;;;;;1.90;99.90;;;;;;5078039;28;19920;-75
2022/01/15 14:51:23;;;;;;;;;;;1.90;99.90;;;;;;5090664;28;20366;-74
2022/01/15 14:53:53;;;;;;;;;;;1.90;99.90;;;;;;5075275;28;19920;-74
2022/01/15 14:56:20;;;;;;;;;;;1.90;99.90;;;;;;5078660;28;19924;-74
2022/01/15 14:58:47;;;;;;;;;;;1.90;99.90;;;;;;5084204;28;19920;-74